Time;durP1;ratioP1;P1;durP2;ratioP2;P2;SDS_P1;SDS_P2;PMS_P1;PMS_P2;Temp;Humidity;BMP_temperature;BMP_pressure;BME280_temperature;BME280_humidity;BME280_pressure;Samples;Min_cycle;Max_cycle;Signal;HPM_P1;HPM_P2
2021/08/25 04:16:44;;;;;;;15.27;12.55;;;;;;;10.14;100.00;99296.59;5366588;23;19922;-79
2021/08/25 04:19:09;;;;;;;15.70;11.65;;;;;;;10.13;100.00;99300.06;4976022;28;20035;-80
2021/08/25 04:21:35;;;;;;;17.20;11.68;;;;;;;10.19;100.00;99290.50;4975763;28;20019;-79
2021/08/25 04:24:00;;;;;;;16.88;12.52;;;;;;;10.26;100.00;99296.53;4975877;28;20023;-79
2021/08/25 04:26:25;;;;;;;17.15;12.27;;;;;;;10.24;100.00;99298.28;4975844;28;20495;-79
2021/08/25 04:28:53;;;;;;;16.48;11.60;;;;;;;10.22;100.00;99294.81;4974787;28;20498;-81
2021/08/25 04:31:19;;;;;;;17.83;12.15;;;;;;;10.13;100.00;99290.56;4975409;28;20026;-81
2021/08/25 04:33:44;;;;;;;15.10;12.57;;;;;;;10.15;100.00;99298.31;4949594;28;20077;-79
2021/08/25 04:36:09;;;;;;;26.63;12.25;;;;;;;10.15;100.00;99298.31;4942499;28;20028;-79
2021/08/25 04:38:35;;;;;;;17.73;12.48;;;;;;;10.15;100.00;99298.31;4937363;29;20381;-79
2021/08/25 04:41:01;;;;;;;16.73;12.02;;;;;;;10.21;100.00;99298.28;4937138;29;20351;-79
2021/08/25 04:43:27;;;;;;;16.60;12.18;;;;;;;10.41;100.00;99303.31;4951858;29;20059;-78
2021/08/25 04:45:53;;;;;;;16.42;11.93;;;;;;;10.32;100.00;99295.63;4936985;29;20027;-81
2021/08/25 04:48:18;;;;;;;16.30;11.93;;;;;;;10.32;100.00;99296.47;4937115;29;20062;-81
2021/08/25 04:50:43;;;;;;;20.55;11.77;;;;;;;10.34;100.00;99301.63;4956580;28;20030;-79
2021/08/25 04:53:09;;;;;;;16.83;11.95;;;;;;;10.36;100.00;99298.19;4975475;28;20105;-80
2021/08/25 04:55:35;;;;;;;11.93;10.55;;;;;;;10.39;99.93;99298.13;4975433;28;20037;-80
2021/08/25 04:58:01;;;;;;;15.95;11.55;;;;;;;10.35;99.94;99301.66;4975026;28;20097;-80
2021/08/25 05:00:27;;;;;;;18.15;12.25;;;;;;;10.38;99.90;99296.41;4973918;28;20444;-80
2021/08/25 05:02:52;;;;;;;14.48;12.02;;;;;;;10.29;100.00;99301.69;4959967;28;20140;-80
2021/08/25 05:05:17;;;;;;;19.73;12.68;;;;;;;10.29;100.00;99299.09;4944495;29;20032;-80
2021/08/25 05:07:43;;;;;;;17.20;13.45;;;;;;;10.29;100.00;99302.53;4936546;29;20027;-80
2021/08/25 05:10:08;;;;;;;17.20;12.75;;;;;;;10.29;100.00;99305.13;4936539;29;20027;-80
2021/08/25 05:12:34;;;;;;;17.55;13.13;;;;;;;10.48;100.00;99302.38;4936679;29;20031;-79
2021/08/25 05:14:59;;;;;;;17.15;12.75;;;;;;;10.53;100.00;99304.06;4936290;29;20019;-79
2021/08/25 05:17:24;;;;;;;16.52;12.40;;;;;;;10.71;100.00;99297.84;4936162;29;20521;-80
2021/08/25 05:19:50;;;;;;;16.25;11.77;;;;;;;10.92;99.43;99304.53;4941651;28;20137;-79
2021/08/25 05:22:15;;;;;;;14.15;10.88;;;;;;;11.03;98.68;99307.88;4974736;28;20526;-80
2021/08/25 05:24:40;;;;;;;17.48;11.20;;;;;;;11.30;98.13;99303.22;4974690;28;20153;-79
2021/08/25 05:27:06;;;;;;;15.70;11.35;;;;;;;11.33;97.31;99305.78;4973237;28;20054;-80
2021/08/25 05:29:31;;;;;;;12.30;10.55;;;;;;;11.47;96.58;99303.88;4974420;28;20117;-81
2021/08/25 05:31:56;;;;;;;13.00;10.55;;;;;;;11.59;95.67;99303.69;4970431;28;20043;-80
2021/08/25 05:34:22;;;;;;;15.45;10.70;;;;;;;11.64;95.35;99300.19;4946957;29;20027;-77
2021/08/25 05:36:47;;;;;;;14.95;10.35;;;;;;;11.84;95.48;99308.56;4935996;28;20058;-80
2021/08/25 05:39:12;;;;;;;19.38;11.52;;;;;;;11.94;94.48;99307.59;4935488;29;20016;-80
2021/08/25 05:41:38;;;;;;;13.15;11.55;;;;;;;11.96;94.10;99300.63;4935043;29;20032;-80
2021/08/25 05:44:04;;;;;;;13.13;10.27;;;;;;;12.19;94.30;99304.59;4935654;29;20043;-80
2021/08/25 05:46:33;;;;;;;17.17;10.82;;;;;;;12.30;93.63;99313.94;4935765;29;20601;-80
2021/08/25 05:49:00;;;;;;;17.50;10.50;;;;;;;12.31;92.83;99314.78;4935612;29;20585;-80
2021/08/25 05:51:25;;;;;;;13.20;10.98;;;;;;;12.45;92.41;99307.63;4966323;28;20278;-80
2021/08/25 05:53:52;;;;;;;14.25;11.05;;;;;;;12.54;91.70;99312.66;4974123;28;20026;-80
2021/08/25 05:56:17;;;;;;;15.25;10.52;;;;;;;12.68;92.02;99314.16;4974214;28;20042;-81
2021/08/25 05:58:43;;;;;;;16.00;11.35;;;;;;;12.84;90.81;99307.78;4974100;28;20027;-80
2021/08/25 06:01:14;;;;;;;13.45;10.40;;;;;;;12.75;90.45;99307.97;4973885;28;20087;-80
2021/08/25 06:03:40;;;;;;;16.73;10.55;;;;;;;13.16;89.68;99306.31;4948687;28;20023;-80
2021/08/25 06:06:05;;;;;;;12.48;10.05;;;;;;;13.15;88.48;99302.88;4941027;29;20031;-80
2021/08/25 06:08:30;;;;;;;14.65;9.95;;;;;;;13.43;87.47;99300.56;4935794;29;20019;-80
2021/08/25 06:10:56;;;;;;;16.27;10.63;;;;;;;13.44;87.57;99302.31;4935422;29;20031;-80
2021/08/25 06:13:21;;;;;;;13.02;10.07;;;;;;;13.59;85.72;99301.97;4935150;29;20027;-80
2021/08/25 06:15:46;;;;;;;11.70;10.07;;;;;;;13.65;86.55;99300.13;4935114;29;20036;-80
2021/08/25 06:18:12;;;;;;;12.43;9.75;;;;;;;13.74;85.89;99299.91;4935449;29;20027;-80
2021/08/25 06:20:37;;;;;;;12.98;9.43;;;;;;;13.86;84.84;99299.63;4953086;28;20107;-80
2021/08/25 06:23:02;;;;;;;12.73;9.50;;;;;;;14.07;84.16;99298.25;4973502;28;20030;-80
2021/08/25 06:25:28;;;;;;;13.32;10.55;;;;;;;14.04;83.98;99299.19;4973469;28;20027;-80
2021/08/25 06:27:54;;;;;;;11.52;9.13;;;;;;;14.11;83.56;99295.53;4973434;28;20029;-80
2021/08/25 06:30:20;;;;;;;12.65;9.15;;;;;;;14.07;84.01;99288.72;4973304;28;20031;-80
2021/08/25 06:32:45;;;;;;;14.57;9.45;;;;;;;14.17;83.69;99283.25;4960500;28;20119;-73
2021/08/25 06:35:10;;;;;;;11.02;9.30;;;;;;;14.63;81.75;99278.63;4942884;29;20030;-73
2021/08/25 06:37:36;;;;;;;11.88;9.60;;;;;;;14.93;79.75;99286.53;4934962;29;20023;-73
2021/08/25 06:40:02;;;;;;;10.32;8.95;;;;;;;14.80;79.49;99279.94;4934814;29;20349;-73
2021/08/25 06:42:27;;;;;;;10.23;8.52;;;;;;;15.27;79.17;99282.97;4934721;29;20118;-73
2021/08/25 06:44:53;;;;;;;11.65;8.82;;;;;;;15.47;77.89;99283.22;4934878;29;20111;-73
2021/08/25 06:47:18;;;;;;;13.65;8.77;;;;;;;15.55;76.70;99285.63;4934866;29;20110;-73
2021/08/25 06:49:44;;;;;;;9.95;7.93;;;;;;;16.05;74.64;99281.50;4938767;28;20028;-73
2021/08/25 06:52:09;;;;;;;9.18;8.00;;;;;;;15.85;73.62;99278.63;4987399;28;20459;-73
2021/08/25 06:54:34;;;;;;;8.57;7.68;;;;;;;17.08;69.59;99276.25;4973216;28;20089;-73
2021/08/25 06:56:59;;;;;;;9.23;7.25;;;;;;;17.47;67.81;99283.53;4973196;28;20101;-73
2021/08/25 06:59:25;;;;;;;9.73;6.70;;;;;;;19.33;61.90;99274.03;4973177;28;20023;-74
2021/08/25 07:01:50;;;;;;;10.45;6.95;;;;;;;21.08;56.31;99261.94;4970134;28;20475;-73
2021/08/25 07:04:18;;;;;;;8.52;6.18;;;;;;;21.56;54.78;99268.13;4945632;29;20484;-74
2021/08/25 07:06:43;;;;;;;9.05;5.53;;;;;;;22.86;51.04;99262.41;4935403;28;20023;-74
2021/08/25 07:09:09;;;;;;;5.30;4.80;;;;;;;23.83;48.19;99258.97;4934572;29;20031;-74
2021/08/25 07:11:34;;;;;;;9.73;4.47;;;;;;;24.16;46.39;99263.00;4934595;29;20096;-74
2021/08/25 07:14:00;;;;;;;6.00;5.40;;;;;;;23.50;46.80;99258.47;4933056;29;20032;-74
2021/08/25 07:16:25;;;;;;;5.25;4.75;;;;;;;25.05;45.19;99251.72;4934418;29;20027;-74
2021/08/25 07:18:51;;;;;;;7.63;5.32;;;;;;;26.02;41.61;99258.94;4934574;29;20106;-74
2021/08/25 07:21:16;;;;;;;5.60;4.90;;;;;;;26.61;40.56;99256.28;4962245;28;20027;-74
2021/08/25 07:23:41;;;;;;;6.07;4.63;;;;;;;25.84;41.08;99259.34;4972660;28;20094;-74
2021/08/25 07:26:07;;;;;;;6.72;4.50;;;;;;;26.19;40.00;99255.88;4919633;28;20695;-74
2021/08/25 07:28:32;;;;;;;6.10;4.80;;;;;;;27.44;37.53;99247.19;4972476;28;20114;-74
2021/08/25 07:30:57;;;;;;;6.07;4.55;;;;;;;25.86;41.52;99251.25;4972802;28;20110;-74
2021/08/25 07:33:23;;;;;;;6.03;4.05;;;;;;;26.78;39.81;99255.81;4949587;28;20024;-74
2021/08/25 07:35:48;;;;;;;7.85;3.90;;;;;;;26.46;40.11;99246.84;4942320;29;20088;-74
2021/08/25 07:38:17;;;;;;;4.80;3.63;;;;;;;27.64;37.46;99246.41;4934050;29;20034;-74
2021/08/25 07:40:43;;;;;;;6.27;3.30;;;;;;;29.42;35.03;99243.78;4934276;29;20102;-74
2021/08/25 07:43:09;;;;;;;5.28;3.67;;;;;;;29.11;33.91;99242.13;4933701;29;20300;-74
2021/08/25 07:45:36;;;;;;;7.72;4.18;;;;;;;27.58;36.17;99253.09;4934195;29;20031;-74
2021/08/25 07:48:01;;;;;;;4.05;3.50;;;;;;;27.31;37.54;99248.13;4934357;29;20528;-74
2021/08/25 07:50:27;;;;;;;6.80;3.70;;;;;;;28.58;35.38;99247.56;4949144;28;20031;-74
2021/08/25 07:52:52;;;;;;;3.92;3.63;;;;;;;26.30;38.62;99255.94;4972405;28;20150;-74
2021/08/25 07:55:17;;;;;;;7.20;3.45;;;;;;;27.62;35.91;99243.88;4972579;28;20042;-74
2021/08/25 07:57:42;;;;;;;9.77;3.78;;;;;;;28.09;35.15;99246.28;4972579;28;20023;-74
2021/08/25 08:00:09;;;;;;;5.70;3.38;;;;;;;28.15;34.80;99240.47;4971397;28;20019;-74
2021/08/25 08:02:34;;;;;;;7.57;3.53;;;;;;;27.07;36.52;99242.06;4962494;28;20031;-74
2021/08/25 08:05:00;;;;;;;4.68;3.22;;;;;;;26.98;37.35;99245.44;4944965;29;20035;-74
2021/08/25 08:07:25;;;;;;;3.95;3.30;;;;;;;26.64;38.29;99250.72;4937672;29;20023;-74
2021/08/25 08:09:51;;;;;;;4.15;3.00;;;;;;;27.72;36.57;99243.16;4937679;29;20035;-73
2021/08/25 08:12:16;;;;;;;4.80;3.45;;;;;;;28.47;35.08;99242.28;4937361;29;20501;-74
2021/08/25 08:14:41;;;;;;;3.97;3.10;;;;;;;26.51;36.97;99249.97;4937629;29;20027;-74
2021/08/25 08:17:07;;;;;;;10.85;8.30;;;;;;;28.53;34.72;99244.41;4937340;29;20037;-73
2021/08/25 08:19:33;;;;;;;5.22;3.42;;;;;;;27.19;36.33;99246.47;4938248;28;20035;-74
2021/08/25 08:22:00;;;;;;;4.75;3.53;;;;;;;27.81;35.44;99243.25;4975883;28;20033;-74
2021/08/25 08:24:27;;;;;;;7.20;3.53;;;;;;;25.88;38.95;99247.53;4975896;28;20023;-74
2021/08/25 08:26:52;;;;;;;4.70;3.58;;;;;;;27.28;36.56;99248.41;4976083;28;20490;-74
2021/08/25 08:29:18;;;;;;;6.20;3.15;;;;;;;27.62;35.14;99243.88;4990714;28;20066;-75
2021/08/25 08:31:43;;;;;;;4.70;2.90;;;;;;;28.26;35.54;99248.41;4973754;28;20026;-74
2021/08/25 08:34:09;;;;;;;6.90;2.78;;;;;;;28.18;34.23;99240.22;4948237;28;20085;-74
2021/08/25 08:36:34;;;;;;;3.95;3.15;;;;;;;26.67;37.02;99237.19;4939201;28;20031;-74
2021/08/25 08:38:59;;;;;;;6.90;3.50;;;;;;;26.07;38.45;99230.25;4937154;29;20019;-74
2021/08/25 08:41:25;;;;;;;4.82;2.90;;;;;;;29.41;33.84;99215.41;4936890;29;20230;-74
2021/08/25 08:43:52;;;;;;;4.97;3.15;;;;;;;28.81;33.56;99226.91;4937128;29;20035;-74
2021/08/25 08:46:20;;;;;;;3.80;3.00;;;;;;;30.23;30.89;99222.28;4936968;29;20148;-75
2021/08/25 08:48:47;;;;;;;3.38;3.08;;;;;;;31.12;30.69;99221.94;4936802;29;20397;-74
2021/08/25 08:51:18;;;;;;;5.13;2.72;;;;;;;30.74;30.28;99215.75;4964327;28;20109;-74
2021/08/25 08:53:44;;;;;;;7.13;2.80;;;;;;;27.34;34.63;99218.63;4975315;28;20118;-74
2021/08/25 08:56:09;;;;;;;4.97;3.25;;;;;;;28.25;33.85;99220.09;4975213;28;20101;-77
2021/08/25 08:58:38;;;;;;;7.28;3.35;;;;;;;26.94;35.53;99220.91;4975210;28;20487;-77
2021/08/25 09:01:03;;;;;;;11.35;4.00;;;;;;;25.30;37.68;99225.19;4975258;28;20392;-77
2021/08/25 09:03:29;;;;;;;6.80;3.10;;;;;;;25.52;37.48;99221.81;4951113;28;20028;-77
2021/08/25 09:06:02;;;;;;;4.72;2.83;;;;;;;27.58;33.67;99221.13;4943954;28;20020;-77
2021/08/25 09:08:30;;;;;;;6.80;3.10;;;;;;;25.22;36.78;99229.34;4936181;29;20023;-77
2021/08/25 09:11:00;;;;;;;6.85;3.45;;;;;;;24.84;38.06;99233.69;4936603;29;20032;-77
2021/08/25 09:13:36;;;;;;;4.20;2.85;;;;;;;25.82;36.33;99226.75;4936220;29;20031;-77
2021/08/25 09:16:02;;;;;;;3.30;3.00;;;;;;;26.38;34.80;99218.13;4935453;29;20035;-77
2021/08/25 09:18:27;;;;;;;6.80;3.35;;;;;;;26.14;35.60;99220.84;4936399;29;20059;-77
2021/08/25 09:20:53;;;;;;;4.18;3.33;;;;;;;25.06;38.72;99217.13;4958267;28;20109;-77
2021/08/25 09:23:23;;;;;;;7.50;3.50;;;;;;;25.25;36.95;99210.56;4974637;28;20031;-77
2021/08/25 09:25:51;;;;;;;7.22;3.20;;;;;;;24.98;37.32;99215.97;4974625;28;20034;-77
2021/08/25 09:28:24;;;;;;;8.50;3.38;;;;;;;24.57;38.45;99225.00;4974361;28;20022;-77
2021/08/25 09:31:10;;;;;;;5.75;3.80;;;;;;;26.30;36.17;99209.88;4974574;28;20069;-77
2021/08/25 09:33:43;;;;;;;7.07;3.08;;;;;;;24.95;37.23;99208.22;4949298;28;20024;-77
2021/08/25 09:36:11;;;;;;;3.83;3.00;;;;;;;25.55;36.66;99212.78;4940082;29;20024;-77
2021/08/25 09:38:38;;;;;;;5.75;3.30;;;;;;;26.44;34.76;99214.19;4936146;29;20026;-77
2021/08/25 09:41:12;;;;;;;3.90;2.70;;;;;;;26.77;34.38;99203.63;4935835;29;20051;-77
2021/08/25 09:43:45;;;;;;;3.65;2.90;;;;;;;28.54;31.88;99208.81;4936108;29;20111;-78
2021/08/25 09:46:25;;;;;;;7.05;3.20;;;;;;;28.58;30.63;99212.91;4935990;29;20098;-77
2021/08/25 09:48:59;;;;;;;3.80;2.70;;;;;;;29.87;29.88;99205.91;4935907;29;20026;-77
2021/08/25 09:51:36;;;;;;;3.92;3.28;;;;;;;27.61;32.97;99206.75;4966122;28;20395;-77
2021/08/25 09:54:12;;;;;;;5.50;3.17;;;;;;;26.63;33.90;99203.84;4974393;28;20096;-73
2021/08/25 09:56:39;;;;;;;3.83;3.17;;;;;;;27.81;34.33;99199.81;4974540;28;20085;-73
2021/08/25 09:59:06;;;;;;;3.85;3.35;;;;;;;27.68;32.74;99202.59;4974197;28;20498;-76
2021/08/25 10:01:32;;;;;;;3.30;2.92;;;;;;;27.53;33.27;99191.38;4973627;28;20452;-76
2021/08/25 10:03:58;;;;;;;3.33;3.03;;;;;;;25.47;35.93;99188.63;4946827;28;20027;-76
2021/08/25 10:06:26;;;;;;;3.67;3.10;;;;;;;24.34;39.10;99192.09;4937664;29;20436;-76
2021/08/25 10:08:53;;;;;;;5.25;3.50;;;;;;;23.24;40.53;99202.78;4935488;29;20024;-76
2021/08/25 10:11:27;;;;;;;4.53;3.33;;;;;;;23.23;41.01;99190.50;4935511;29;20035;-76
2021/08/25 10:13:53;;;;;;;3.65;2.78;;;;;;;21.62;44.02;99191.31;4935628;29;20023;-72
2021/08/25 10:16:36;;;;;;;7.75;3.85;;;;;;;22.55;42.14;99191.16;4935230;29;20485;-72
2021/08/25 10:19:23;;;;;;;8.65;3.60;;;;;;;24.39;39.67;99190.00;4935549;29;20026;-73
2021/08/25 10:21:49;;;;;;;4.32;3.65;;;;;;;24.85;36.33;99187.69;4971939;28;20551;-73
2021/08/25 10:24:14;;;;;;;7.30;3.58;;;;;;;23.23;40.13;99187.00;4973764;28;20030;-73
2021/08/25 10:26:58;;;;;;;8.00;4.20;;;;;;;25.09;35.56;99184.25;4973631;28;20037;-73
2021/08/25 10:29:25;;;;;;;4.40;3.38;;;;;;;25.32;35.11;99179.97;4974240;28;20030;-78
2021/08/25 10:31:51;;;;;;;4.93;3.47;;;;;;;26.85;32.19;99176.44;4970532;28;20075;-78
2021/08/25 10:34:21;;;;;;;11.15;4.00;;;;;;;28.17;31.11;99171.91;4946411;28;20027;-79
2021/08/25 10:36:48;;;;;;;4.55;3.30;;;;;;;28.30;30.24;99164.56;4935582;28;20028;-79
2021/08/25 10:39:28;;;;;;;6.15;3.47;;;;;;;27.27;33.48;99169.53;4935121;29;20023;-78
2021/08/25 10:41:54;;;;;;;3.97;3.28;;;;;;;26.51;33.56;99165.78;4933674;29;20038;-78
2021/08/25 10:44:48;;;;;;;5.07;3.42;;;;;;;27.48;30.92;99160.78;4935014;29;20028;-79
2021/08/25 10:47:16;;;;;;;5.82;3.88;;;;;;;26.19;33.17;99164.69;4922356;29;20039;-79
2021/08/25 10:49:44;;;;;;;7.47;3.63;;;;;;;26.63;32.38;99148.84;4938013;28;20027;-79
2021/08/25 10:52:13;;;;;;;6.20;3.97;;;;;;;26.52;34.04;99145.34;4973178;28;20066;-79
2021/08/25 10:54:38;;;;;;;4.63;3.15;;;;;;;25.89;34.72;99143.00;4973271;28;20031;-79
2021/08/25 10:57:08;;;;;;;7.43;3.72;;;;;;;26.41;32.58;99132.88;4973253;28;20094;-78
2021/08/25 10:59:34;;;;;;;6.38;3.42;;;;;;;26.34;34.24;99132.47;4973281;28;20023;-78
2021/08/25 11:02:00;;;;;;;5.05;3.33;;;;;;;28.01;31.07;99134.22;4969072;28;20045;-72
2021/08/25 11:04:25;;;;;;;5.03;3.42;;;;;;;28.36;29.12;99121.41;4945918;28;20389;-73
2021/08/25 11:06:52;;;;;;;4.25;3.85;;;;;;;28.33;27.99;99118.97;4934658;29;20035;-73
2021/08/25 11:09:25;;;;;;;6.38;3.63;;;;;;;29.50;27.65;99114.09;4934692;29;20504;-72
2021/08/25 11:12:00;;;;;;;5.72;3.88;;;;;;;27.63;30.10;99116.91;4934607;29;20064;-73
2021/08/25 11:14:37;;;;;;;3.78;3.35;;;;;;;27.35;30.37;99123.66;4934766;29;20501;-72
2021/08/25 11:17:06;;;;;;;5.15;3.90;;;;;;;26.22;30.53;99117.50;4934376;29;20436;-72
2021/08/25 11:19:34;;;;;;;5.13;3.97;;;;;;;26.11;31.95;99106.88;4934978;28;20031;-73
2021/08/25 11:22:00;;;;;;;3.88;3.38;;;;;;;25.02;34.79;99108.72;4972967;28;20054;-73
2021/08/25 11:24:38;;;;;;;7.00;3.83;;;;;;;27.77;31.60;99103.31;4972975;28;20027;-73
2021/08/25 11:27:25;;;;;;;5.28;3.38;;;;;;;28.56;29.29;99105.50;4973163;28;20031;-73
2021/08/25 11:30:08;;;;;;;3.97;3.45;;;;;;;28.63;29.36;99096.00;4972998;28;20033;-72
2021/08/25 11:32:55;;;;;;;5.00;3.85;;;;;;;25.54;33.83;99107.59;4963287;28;20090;-72
2021/08/25 11:35:38;;;;;;;6.18;3.63;;;;;;;29.08;29.76;99096.44;4942239;29;20058;-73
2021/08/25 11:38:06;;;;;;;5.07;3.95;;;;;;;29.40;27.75;99096.22;4934668;29;20545;-73
2021/08/25 11:40:32;;;;;;;4.22;3.83;;;;;;;28.12;29.66;99089.69;4938315;29;20027;-73
2021/08/25 11:43:18;;;;;;;6.70;3.55;;;;;;;28.55;28.89;99087.81;4938146;29;20027;-77
2021/08/25 11:45:45;;;;;;;4.85;3.50;;;;;;;27.31;29.92;99091.13;4938215;29;20043;-77
2021/08/25 11:48:12;;;;;;;6.68;3.45;;;;;;;27.35;30.77;99076.59;4938195;29;20051;-77
2021/08/25 11:50:40;;;;;;;5.50;3.97;;;;;;;28.01;28.76;99075.59;4955986;28;20431;-76
2021/08/25 11:53:23;;;;;;;7.63;3.70;;;;;;;27.09;31.01;99068.09;4976391;28;20038;-77
2021/08/25 11:55:51;;;;;;;4.63;3.85;;;;;;;29.40;28.41;99069.53;4976571;28;20097;-77
2021/08/25 11:58:25;;;;;;;5.85;3.92;;;;;;;25.49;32.82;99076.09;4976633;28;20030;-76
2021/08/25 12:00:52;;;;;;;5.00;3.97;;;;;;;24.18;35.21;99075.75;4975312;28;20069;-77
2021/08/25 12:03:17;;;;;;;7.75;3.67;;;;;;;26.61;32.08;99070.19;4954939;28;20132;-77
2021/08/25 12:05:53;;;;;;;6.20;4.22;;;;;;;27.78;31.28;99065.06;4945515;29;20023;-77
2021/08/25 12:08:19;;;;;;;4.95;3.70;;;;;;;26.48;32.22;99065.00;4937831;29;20034;-77
2021/08/25 12:11:02;;;;;;;4.30;3.85;;;;;;;26.11;34.39;99059.06;4937747;29;20032;-77
2021/08/25 12:13:36;;;;;;;6.50;4.13;;;;;;;23.78;37.16;99077.63;4937681;29;20028;-77
2021/08/25 12:16:04;;;;;;;5.55;4.00;;;;;;;23.64;37.02;99069.75;4937399;29;20043;-72
2021/08/25 12:18:44;;;;;;;8.32;4.70;;;;;;;23.26;39.69;99073.97;4937680;29;20032;-72
2021/08/25 12:21:09;;;;;;;6.82;4.63;;;;;;;24.10;35.59;99056.91;4963895;28;20054;-72
2021/08/25 12:23:35;;;;;;;6.70;5.15;;;;;;;23.54;37.12;99061.56;4976113;28;20027;-72
2021/08/25 12:26:00;;;;;;;6.90;4.65;;;;;;;23.33;37.15;99062.03;4975843;28;20039;-72
2021/08/25 12:28:34;;;;;;;8.75;5.32;;;;;;;22.23;40.26;99063.72;4975807;28;20027;-72
2021/08/25 12:31:26;;;;;;;7.20;4.43;;;;;;;21.76;40.20;99059.50;4975820;28;20552;-72
2021/08/25 12:34:04;;;;;;;6.10;4.47;;;;;;;22.66;41.58;99055.75;4948843;28;20033;-72
2021/08/25 12:36:34;;;;;;;6.07;4.00;;;;;;;23.36;38.03;99050.41;4940079;28;20091;-72
2021/08/25 12:39:05;;;;;;;7.38;4.45;;;;;;;23.32;36.69;99044.47;4937247;29;20019;-72
2021/08/25 12:41:31;;;;;;;6.53;4.18;;;;;;;23.24;37.95;99041.47;4937004;29;20023;-72
2021/08/25 12:43:57;;;;;;;6.13;4.72;;;;;;;23.14;38.02;99040.38;4937261;29;20074;-73
2021/08/25 12:46:22;;;;;;;9.88;5.28;;;;;;;23.55;38.98;99044.75;4937010;29;20027;-72
2021/08/25 12:48:48;;;;;;;13.60;6.22;;;;;;;23.37;37.56;99040.69;4937028;29;20022;-72
2021/08/25 12:51:18;;;;;;;14.73;7.45;;;;;;;23.75;38.80;99030.22;4963191;28;20035;-72
2021/08/25 12:53:45;;;;;;;8.27;4.75;;;;;;;23.67;36.77;99027.22;4975517;28;20030;-72
2021/08/25 12:56:10;;;;;;;8.05;4.85;;;;;;;23.19;38.91;99033.00;4975290;28;20023;-72
2021/08/25 12:58:35;;;;;;;6.00;4.55;;;;;;;23.46;38.78;99029.50;4975413;28;20030;-72
2021/08/25 13:01:00;;;;;;;7.45;4.82;;;;;;;23.91;37.06;99024.72;4975365;28;20058;-72
2021/08/25 13:03:26;;;;;;;8.48;5.63;;;;;;;24.02;37.36;99022.16;4951578;28;20491;-72
2021/08/25 13:05:51;;;;;;;5.78;4.60;;;;;;;23.56;38.04;99020.00;4944493;28;20035;-72
2021/08/25 13:08:18;;;;;;;5.65;4.40;;;;;;;23.24;38.47;99024.75;4936704;29;20029;-72
2021/08/25 13:10:44;;;;;;;7.40;4.88;;;;;;;23.63;38.66;99009.81;4936746;29;20397;-72
2021/08/25 13:13:09;;;;;;;6.65;4.65;;;;;;;24.11;37.60;99005.63;4936431;29;20039;-72
2021/08/25 13:15:36;;;;;;;9.65;5.05;;;;;;;24.11;37.96;99005.63;4935138;29;20047;-72
2021/08/25 13:18:01;;;;;;;10.75;4.88;;;;;;;22.96;39.43;99015.16;4936594;29;20580;-72
2021/08/25 13:20:27;;;;;;;9.82;4.88;;;;;;;21.98;41.49;99008.06;4951562;28;20063;-72
2021/08/25 13:22:52;;;;;;;6.40;4.40;;;;;;;22.19;41.81;99008.56;4974732;28;20023;-72
2021/08/25 13:25:17;;;;;;;7.55;5.07;;;;;;;22.39;39.79;99007.34;4974730;28;20030;-72
2021/08/25 13:27:43;;;;;;;6.65;4.93;;;;;;;22.18;40.83;99002.44;4974809;28;20086;-72
2021/08/25 13:30:08;;;;;;;7.82;4.95;;;;;;;22.40;40.17;99006.41;4974769;28;20022;-72
2021/08/25 13:32:34;;;;;;;8.30;4.57;;;;;;;21.23;43.07;99002.81;4964760;28;20027;-72
2021/08/25 13:34:59;;;;;;;10.63;5.13;;;;;;;21.35;43.31;98996.00;4944038;29;20025;-72
2021/08/25 13:37:24;;;;;;;7.60;4.90;;;;;;;21.65;42.07;98993.31;4936244;29;20034;-72
2021/08/25 13:39:50;;;;;;;7.72;4.68;;;;;;;22.19;41.68;98993.59;4936112;29;20385;-72
2021/08/25 13:42:15;;;;;;;7.75;5.05;;;;;;;22.11;41.51;98990.56;4935974;29;20031;-73
2021/08/25 13:44:40;;;;;;;5.65;4.18;;;;;;;22.69;40.65;98986.91;4936023;29;20027;-73
2021/08/25 13:47:05;;;;;;;6.65;4.72;;;;;;;23.08;38.68;98998.50;4936034;29;20059;-73
2021/08/25 13:49:31;;;;;;;8.23;4.18;;;;;;;23.85;41.47;98984.47;4936143;28;20358;-73
2021/08/25 13:51:56;;;;;;;6.18;4.60;;;;;;;23.39;38.61;98980.59;4974274;28;20081;-73
2021/08/25 13:54:22;;;;;;;11.85;4.18;;;;;;;22.46;41.20;98996.28;4974237;28;20031;-73
2021/08/25 13:56:47;;;;;;;11.32;4.60;;;;;;;22.14;42.04;98989.53;4947000;28;20153;-73
2021/08/25 13:59:12;;;;;;;7.15;4.78;;;;;;;21.74;43.20;98984.84;4946288;28;20032;-73
2021/08/25 14:01:38;;;;;;;6.78;4.65;;;;;;;21.57;42.37;98987.69;4944195;28;20042;-73
2021/08/25 14:04:03;;;;;;;7.68;4.65;;;;;;;21.60;44.34;98979.56;4945953;28;20027;-73
2021/08/25 14:06:32;;;;;;;7.18;4.47;;;;;;;20.83;44.39;98982.28;4946168;28;20038;-73
2021/08/25 14:08:58;;;;;;;7.20;5.28;;;;;;;21.21;43.06;98970.41;4946097;28;20027;-73
2021/08/25 14:11:23;;;;;;;6.88;4.60;;;;;;;22.04;43.25;98968.09;4946099;28;20384;-73
2021/08/25 14:13:48;;;;;;;8.23;4.53;;;;;;;21.62;43.71;98972.44;4944807;28;20657;-73
2021/08/25 14:16:14;;;;;;;8.32;4.80;;;;;;;21.97;41.50;98970.28;4945544;28;20642;-73
2021/08/25 14:18:43;;;;;;;7.53;4.22;;;;;;;22.25;41.35;98969.44;4945935;28;21046;-73
2021/08/25 14:21:08;;;;;;;5.38;4.30;;;;;;;22.60;39.34;98955.78;4945750;28;20027;-73
2021/08/25 14:23:33;;;;;;;6.30;4.43;;;;;;;23.02;40.16;98959.25;4946188;28;20404;-73
2021/08/25 14:25:59;;;;;;;6.72;4.97;;;;;;;22.28;41.63;98961.31;4945769;29;20034;-73
2021/08/25 14:28:25;;;;;;;5.78;4.82;;;;;;;22.98;39.42;98955.13;4945826;28;20038;-73
2021/08/25 14:30:54;;;;;;;7.53;4.70;;;;;;;23.20;39.26;98943.94;4941769;28;20070;-72
2021/08/25 14:33:20;;;;;;;;;;;;;;;22.06;42.27;98950.38;4935763;28;20031;-73
2021/08/25 14:35:46;;;;;;;6.38;4.32;;;;;;;22.65;42.09;98943.13;4934240;28;19925;-73
2021/08/25 14:38:11;;;;;;;5.05;3.95;;;;;;;22.15;41.71;98944.56;4935330;28;20037;-72
2021/08/25 14:40:37;;;;;;;6.07;4.43;;;;;;;21.94;42.13;98940.59;4935571;28;20038;-73
2021/08/25 14:43:02;;;;;;;7.47;4.75;;;;;;;22.18;42.51;98939.09;4933719;28;20031;-73
2021/08/25 14:45:28;;;;;;;6.07;4.72;;;;;;;22.50;41.23;98936.19;4927283;28;20030;-78
2021/08/25 14:47:53;;;;;;;7.40;4.65;;;;;;;21.97;42.08;98935.13;4925387;28;20070;-78
2021/08/25 14:50:18;;;;;;;7.03;4.47;;;;;;;22.42;42.38;98920.84;4928096;28;20034;-78
2021/08/25 14:52:44;;;;;;;11.40;4.68;;;;;;;22.78;41.41;98932.63;4926254;28;20038;-77
2021/08/25 14:55:10;;;;;;;5.70;4.43;;;;;;;21.86;42.82;98921.75;4928160;28;20061;-78
2021/08/25 14:57:36;;;;;;;7.72;4.55;;;;;;;22.79;43.32;98924.59;4927360;28;20504;-78
2021/08/25 15:00:02;;;;;;;11.13;4.72;;;;;;;22.84;39.94;98930.41;4928251;28;20889;-78
2021/08/25 15:02:28;;;;;;;8.15;4.38;;;;;;;23.06;41.10;98921.06;4936099;28;20121;-78
2021/08/25 15:04:53;;;;;;;8.30;4.70;;;;;;;23.11;40.72;98918.97;4937074;28;20106;-78
2021/08/25 15:07:18;;;;;;;5.38;4.43;;;;;;;22.97;41.56;98921.72;4937684;28;20396;-78
2021/08/25 15:09:44;;;;;;;7.10;4.80;;;;;;;22.69;40.80;98926.13;4936529;28;20388;-73
2021/08/25 15:12:09;;;;;;;6.13;4.47;;;;;;;22.22;43.23;98924.75;4937034;28;20050;-73
2021/08/25 15:14:35;;;;;;;6.88;4.93;;;;;;;21.56;43.30;98914.75;4939878;28;20035;-73
2021/08/25 15:17:01;;;;;;;14.48;4.95;;;;;;;21.41;43.91;98913.06;4944879;29;20031;-73
2021/08/25 15:19:27;;;;;;;10.60;4.38;;;;;;;21.42;43.84;98906.84;4945071;28;20030;-73
2021/08/25 15:21:53;;;;;;;8.65;4.63;;;;;;;21.73;44.42;98909.31;4944747;28;20058;-73
2021/08/25 15:24:19;;;;;;;7.15;4.43;;;;;;;22.33;41.75;98906.44;4945465;28;20031;-73
2021/08/25 15:26:45;;;;;;;7.82;4.30;;;;;;;22.59;41.98;98906.56;4945102;29;20081;-73
2021/08/25 15:29:11;;;;;;;7.32;4.35;;;;;;;22.31;40.93;98905.69;4945068;29;20533;-73
2021/08/25 15:31:36;;;;;;;8.20;4.50;;;;;;;22.60;42.03;98900.31;4944894;28;20114;-73
2021/08/25 15:34:01;;;;;;;4.95;3.85;;;;;;;21.89;41.45;98896.00;4945263;29;20035;-73
2021/08/25 15:36:26;;;;;;;6.10;4.45;;;;;;;21.74;43.23;98892.53;4944823;28;20035;-73
2021/08/25 15:38:55;;;;;;;7.35;4.75;;;;;;;22.00;43.26;98892.69;4944900;29;20027;-73
2021/08/25 15:41:21;;;;;;;10.75;4.78;;;;;;;22.23;42.20;98886.84;4944941;28;20551;-73
2021/08/25 15:43:48;;;;;;;8.07;4.97;;;;;;;22.05;42.87;98891.50;4944709;28;20130;-73
2021/08/25 15:46:13;;;;;;;12.52;4.50;;;;;;;22.37;41.87;98879.84;4945021;28;20028;-73